Terminal Aerodrome Forecast
Issued by NWS Bismarck, ND

Home | Current Version | Previous Version | Text Only | Print | Product List | Glossary On
Versions: 1 2 3 4 5 6 7 8 9 10 11 12 13 14 15 16 17 18 19 20 21 22
000
FTUS43 KBIS 231400 AAA
TAFBIS
TAF AMD
KBIS 231426Z 2314/2412 07012KT 6SM -RA OVC007
     FM231800 07015G22KT 3SM -SHRA OVC008
     FM240000 13015KT 5SM -SHRA OVC006
     FM240500 16010KT P6SM -SHRA OVC009=

USA.gov is the U.S. government's official web portal to all federal, state and local government web resources and services.